首页
METAR-TAF:

METAR-TAF

机场 :

瓦岱國際機場

永珍, 老挝

纬度: 17-57N, 经度: 102-34E, 海拔: 171米

当前天气观测

该预报发布于29分钟前的02:00 UTC
风速4节,风向西北
温度 27°C
湿度 89%
气压 1005 hPa
能見度: 8000
多云层高于4000英尺
多云层高于8300英尺

METAR: VLVT 190200Z 32004KT 8000 BKN040 BKN083 27/25 Q1005 NOSIG

时间: 09:29 (02:29 UTC)

预报

该预报发布于3小时和29分钟前的23:00 UTC
预报有效从19日的 00点(UTC)到 19日的 24点(UTC)
风速4节,风向东南
能見度: 8000
散云层高于1600英尺
多云层高于8300英尺
短暂存在
从 19日的 14点(UTC)到 19日的 20点(UTC)
能見度: 4000
散云层高于4000英尺
多云层高于8300英尺
轻雾

TAF: VLVT 182300Z 1900/1924 14004KT 8000 SCT016 BKN083 TEMPO 1914/1920 4000 BR SCT040 BKN083

超过4000个机场的气象观测和天气预报(METAR&TAF报告)。

可查询的气象台以黄色和红色小点在地图上表示。

将鼠标移到小点上方,可查看气象台名称。

然后点击查看天气观测和预报。

如需切换地图:点击带黑十字的绿色按钮放大地图;点击带横线的绿色按钮缩小地图;或者点击绿色箭头查看邻近地区的地图。


METAR-TAF: